sensor_id;sensor_type;location;lat;lon;timestamp;P1;durP1;ratioP1;P2;durP2;ratioP2
22652;SDS011;11493;43.344;26.226;2023-04-01T00:01:54;10.98;;;8.13;;
22652;SDS011;11493;43.344;26.226;2023-04-01T00:04:22;12.05;;;7.60;;
22652;SDS011;11493;43.344;26.226;2023-04-01T00:06:48;9.57;;;8.27;;
22652;SDS011;11493;43.344;26.226;2023-04-01T00:09:15;18.60;;;8.43;;
22652;SDS011;11493;43.344;26.226;2023-04-01T00:11:42;11.55;;;8.60;;
22652;SDS011;11493;43.344;26.226;2023-04-01T00:14:12;15.40;;;8.75;;
22652;SDS011;11493;43.344;26.226;2023-04-01T00:16:39;10.82;;;8.30;;
22652;SDS011;11493;43.344;26.226;2023-04-01T00:19:06;12.60;;;8.98;;
22652;SDS011;11493;43.344;26.226;2023-04-01T00:21:33;11.13;;;7.95;;
22652;SDS011;11493;43.344;26.226;2023-04-01T00:24:00;10.57;;;8.07;;
22652;SDS011;11493;43.344;26.226;2023-04-01T00:26:27;10.43;;;8.07;;
22652;SDS011;11493;43.344;26.226;2023-04-01T00:28:54;15.73;;;8.75;;
22652;SDS011;11493;43.344;26.226;2023-04-01T00:31:21;11.65;;;8.85;;
22652;SDS011;11493;43.344;26.226;2023-04-01T00:33:48;16.30;;;10.57;;
22652;SDS011;11493;43.344;26.226;2023-04-01T00:36:17;14.50;;;10.60;;
22652;SDS011;11493;43.344;26.226;2023-04-01T00:38:45;16.90;;;10.38;;
22652;SDS011;11493;43.344;26.226;2023-04-01T00:41:13;13.35;;;9.85;;
22652;SDS011;11493;43.344;26.226;2023-04-01T00:43:43;15.32;;;9.70;;
22652;SDS011;11493;43.344;26.226;2023-04-01T00:46:12;11.43;;;9.80;;
22652;SDS011;11493;43.344;26.226;2023-04-01T00:48:41;11.68;;;9.77;;
22652;SDS011;11493;43.344;26.226;2023-04-01T00:51:18;12.75;;;9.80;;
22652;SDS011;11493;43.344;26.226;2023-04-01T00:53:50;24.83;;;10.32;;
22652;SDS011;11493;43.344;26.226;2023-04-01T00:56:22;13.68;;;10.18;;
22652;SDS011;11493;43.344;26.226;2023-04-01T00:59:16;14.18;;;7.97;;
22652;SDS011;11493;43.344;26.226;2023-04-01T01:01:42;13.00;;;8.23;;
22652;SDS011;11493;43.344;26.226;2023-04-01T01:15:22;14.93;;;9.07;;
22652;SDS011;11493;43.344;26.226;2023-04-01T01:34:19;10.98;;;8.48;;
22652;SDS011;11493;43.344;26.226;2023-04-01T01:36:53;13.27;;;8.82;;
22652;SDS011;11493;43.344;26.226;2023-04-01T01:39:28;10.00;;;8.07;;
22652;SDS011;11493;43.344;26.226;2023-04-01T01:41:59;9.50;;;7.78;;
22652;SDS011;11493;43.344;26.226;2023-04-01T01:44:30;8.48;;;7.70;;
22652;SDS011;11493;43.344;26.226;2023-04-01T01:46:59;8.63;;;7.82;;
22652;SDS011;11493;43.344;26.226;2023-04-01T01:49:27;12.35;;;7.88;;
22652;SDS011;11493;43.344;26.226;2023-04-01T01:51:57;12.07;;;9.32;;
22652;SDS011;11493;43.344;26.226;2023-04-01T01:54:24;10.50;;;8.63;;
22652;SDS011;11493;43.344;26.226;2023-04-01T01:56:52;10.15;;;9.15;;
22652;SDS011;11493;43.344;26.226;2023-04-01T01:59:28;17.17;;;8.43;;
22652;SDS011;11493;43.344;26.226;2023-04-01T02:01:57;10.45;;;9.05;;
22652;SDS011;11493;43.344;26.226;2023-04-01T02:04:26;10.57;;;8.30;;
22652;SDS011;11493;43.344;26.226;2023-04-01T02:06:59;10.80;;;8.48;;
22652;SDS011;11493;43.344;26.226;2023-04-01T02:09:33;12.95;;;7.97;;
22652;SDS011;11493;43.344;26.226;2023-04-01T02:12:05;12.05;;;8.68;;
22652;SDS011;11493;43.344;26.226;2023-04-01T02:17:16;12.07;;;10.45;;
22652;SDS011;11493;43.344;26.226;2023-04-01T02:22:26;12.02;;;9.93;;
22652;SDS011;11493;43.344;26.226;2023-04-01T02:27:58;13.30;;;8.57;;
22652;SDS011;11493;43.344;26.226;2023-04-01T02:30:27;9.02;;;8.10;;
22652;SDS011;11493;43.344;26.226;2023-04-01T02:32:57;9.27;;;8.38;;
22652;SDS011;11493;43.344;26.226;2023-04-01T02:35:26;9.32;;;7.53;;
22652;SDS011;11493;43.344;26.226;2023-04-01T02:37:53;8.98;;;8.07;;
22652;SDS011;11493;43.344;26.226;2023-04-01T02:40:22;10.75;;;8.63;;
22652;SDS011;11493;43.344;26.226;2023-04-01T02:42:49;16.73;;;9.32;;
22652;SDS011;11493;43.344;26.226;2023-04-01T02:45:16;14.90;;;9.18;;
22652;SDS011;11493;43.344;26.226;2023-04-01T02:47:43;14.02;;;10.95;;
22652;SDS011;11493;43.344;26.226;2023-04-01T02:50:10;10.90;;;9.75;;
22652;SDS011;11493;43.344;26.226;2023-04-01T02:52:37;11.95;;;10.20;;
22652;SDS011;11493;43.344;26.226;2023-04-01T02:55:05;11.07;;;9.85;;
22652;SDS011;11493;43.344;26.226;2023-04-01T02:57:32;14.00;;;10.18;;
22652;SDS011;11493;43.344;26.226;2023-04-01T02:59:59;11.38;;;9.20;;
22652;SDS011;11493;43.344;26.226;2023-04-01T03:02:26;12.70;;;8.95;;
22652;SDS011;11493;43.344;26.226;2023-04-01T03:04:54;14.45;;;9.25;;
22652;SDS011;11493;43.344;26.226;2023-04-01T03:07:21;9.90;;;8.50;;
22652;SDS011;11493;43.344;26.226;2023-04-01T03:09:48;9.73;;;8.70;;
22652;SDS011;11493;43.344;26.226;2023-04-01T03:12:15;14.60;;;8.45;;
22652;SDS011;11493;43.344;26.226;2023-04-01T03:14:48;12.65;;;8.55;;
22652;SDS011;11493;43.344;26.226;2023-04-01T03:17:16;10.30;;;8.68;;
22652;SDS011;11493;43.344;26.226;2023-04-01T03:19:43;9.27;;;8.27;;
22652;SDS011;11493;43.344;26.226;2023-04-01T03:22:10;10.80;;;8.98;;
22652;SDS011;11493;43.344;26.226;2023-04-01T03:24:38;10.20;;;8.68;;
22652;SDS011;11493;43.344;26.226;2023-04-01T03:27:04;15.35;;;9.52;;
22652;SDS011;11493;43.344;26.226;2023-04-01T03:29:31;9.52;;;8.52;;
22652;SDS011;11493;43.344;26.226;2023-04-01T03:31:59;17.95;;;9.90;;
22652;SDS011;11493;43.344;26.226;2023-04-01T03:34:26;24.20;;;10.07;;
22652;SDS011;11493;43.344;26.226;2023-04-01T03:36:53;15.40;;;9.65;;
22652;SDS011;11493;43.344;26.226;2023-04-01T03:39:20;20.52;;;10.52;;
22652;SDS011;11493;43.344;26.226;2023-04-01T03:41:48;23.27;;;9.98;;
22652;SDS011;11493;43.344;26.226;2023-04-01T03:44:15;17.60;;;10.02;;
22652;SDS011;11493;43.344;26.226;2023-04-01T03:46:45;16.58;;;10.23;;
22652;SDS011;11493;43.344;26.226;2023-04-01T03:49:13;16.80;;;8.90;;
22652;SDS011;11493;43.344;26.226;2023-04-01T03:51:41;13.77;;;9.88;;
22652;SDS011;11493;43.344;26.226;2023-04-01T03:54:09;15.10;;;9.70;;
22652;SDS011;11493;43.344;26.226;2023-04-01T03:56:37;13.70;;;11.00;;
22652;SDS011;11493;43.344;26.226;2023-04-01T03:59:05;11.57;;;9.13;;
22652;SDS011;11493;43.344;26.226;2023-04-01T04:01:33;14.88;;;9.48;;
22652;SDS011;11493;43.344;26.226;2023-04-01T04:04:00;14.93;;;9.68;;
22652;SDS011;11493;43.344;26.226;2023-04-01T04:06:27;15.10;;;10.10;;
22652;SDS011;11493;43.344;26.226;2023-04-01T04:08:55;18.08;;;12.63;;
22652;SDS011;11493;43.344;26.226;2023-04-01T04:11:22;31.63;;;16.73;;
22652;SDS011;11493;43.344;26.226;2023-04-01T04:13:51;19.70;;;13.55;;
22652;SDS011;11493;43.344;26.226;2023-04-01T04:16:19;16.95;;;10.00;;
22652;SDS011;11493;43.344;26.226;2023-04-01T04:18:53;25.50;;;13.18;;
22652;SDS011;11493;43.344;26.226;2023-04-01T04:21:20;12.25;;;10.02;;
22652;SDS011;11493;43.344;26.226;2023-04-01T04:23:47;13.40;;;8.93;;
22652;SDS011;11493;43.344;26.226;2023-04-01T04:26:17;32.10;;;19.13;;
22652;SDS011;11493;43.344;26.226;2023-04-01T04:28:54;22.35;;;15.10;;
22652;SDS011;11493;43.344;26.226;2023-04-01T04:31:22;16.98;;;10.85;;
22652;SDS011;11493;43.344;26.226;2023-04-01T04:33:52;16.33;;;11.00;;
22652;SDS011;11493;43.344;26.226;2023-04-01T04:36:20;20.45;;;11.95;;
22652;SDS011;11493;43.344;26.226;2023-04-01T04:38:49;17.92;;;11.70;;
22652;SDS011;11493;43.344;26.226;2023-04-01T04:41:17;21.70;;;13.48;;
22652;SDS011;11493;43.344;26.226;2023-04-01T04:43:49;28.58;;;15.18;;
22652;SDS011;11493;43.344;26.226;2023-04-01T04:46:22;29.52;;;17.70;;
22652;SDS011;11493;43.344;26.226;2023-04-01T04:48:55;35.35;;;18.38;;
22652;SDS011;11493;43.344;26.226;2023-04-01T04:51:22;30.27;;;18.00;;
22652;SDS011;11493;43.344;26.226;2023-04-01T04:53:50;27.80;;;14.50;;
22652;SDS011;11493;43.344;26.226;2023-04-01T04:58:58;20.15;;;11.25;;
22652;SDS011;11493;43.344;26.226;2023-04-01T05:01:38;21.58;;;12.65;;
22652;SDS011;11493;43.344;26.226;2023-04-01T05:04:05;24.90;;;12.57;;
22652;SDS011;11493;43.344;26.226;2023-04-01T05:06:33;15.25;;;11.40;;
22652;SDS011;11493;43.344;26.226;2023-04-01T05:09:00;14.25;;;10.38;;
22652;SDS011;11493;43.344;26.226;2023-04-01T05:11:27;12.20;;;10.02;;
22652;SDS011;11493;43.344;26.226;2023-04-01T05:13:55;16.02;;;10.10;;
22652;SDS011;11493;43.344;26.226;2023-04-01T05:16:22;14.57;;;8.68;;
22652;SDS011;11493;43.344;26.226;2023-04-01T05:18:49;18.00;;;10.07;;
22652;SDS011;11493;43.344;26.226;2023-04-01T05:21:16;15.18;;;10.38;;
22652;SDS011;11493;43.344;26.226;2023-04-01T05:23:43;16.65;;;11.32;;
22652;SDS011;11493;43.344;26.226;2023-04-01T05:26:12;22.00;;;13.77;;
22652;SDS011;11493;43.344;26.226;2023-04-01T05:28:40;23.00;;;15.48;;
22652;SDS011;11493;43.344;26.226;2023-04-01T05:31:07;15.30;;;12.05;;
22652;SDS011;11493;43.344;26.226;2023-04-01T05:33:40;22.48;;;14.38;;
22652;SDS011;11493;43.344;26.226;2023-04-01T05:36:13;26.35;;;14.48;;
22652;SDS011;11493;43.344;26.226;2023-04-01T05:38:42;29.35;;;20.02;;
22652;SDS011;11493;43.344;26.226;2023-04-01T05:41:12;39.38;;;23.83;;
22652;SDS011;11493;43.344;26.226;2023-04-01T05:43:44;40.42;;;23.98;;
22652;SDS011;11493;43.344;26.226;2023-04-01T05:46:40;25.40;;;17.75;;
22652;SDS011;11493;43.344;26.226;2023-04-01T05:49:20;27.40;;;15.55;;
22652;SDS011;11493;43.344;26.226;2023-04-01T05:51:48;28.23;;;15.95;;
22652;SDS011;11493;43.344;26.226;2023-04-01T05:54:15;22.67;;;16.23;;
22652;SDS011;11493;43.344;26.226;2023-04-01T05:56:44;18.98;;;14.35;;
22652;SDS011;11493;43.344;26.226;2023-04-01T05:59:14;28.02;;;16.60;;
22652;SDS011;11493;43.344;26.226;2023-04-01T06:01:41;20.10;;;13.13;;
22652;SDS011;11493;43.344;26.226;2023-04-01T06:04:15;12.50;;;9.77;;
22652;SDS011;11493;43.344;26.226;2023-04-01T06:06:44;18.27;;;11.25;;
22652;SDS011;11493;43.344;26.226;2023-04-01T06:09:16;31.67;;;17.45;;
22652;SDS011;11493;43.344;26.226;2023-04-01T06:13:00;34.08;;;20.60;;
22652;SDS011;11493;43.344;26.226;2023-04-01T06:15:17;30.88;;;20.75;;
22652;SDS011;11493;43.344;26.226;2023-04-01T06:31:45;20.95;;;13.27;;
22652;SDS011;11493;43.344;26.226;2023-04-01T06:34:39;24.42;;;15.23;;
22652;SDS011;11493;43.344;26.226;2023-04-01T06:49:40;24.25;;;14.93;;
22652;SDS011;11493;43.344;26.226;2023-04-01T06:55:36;10.77;;;6.72;;
22652;SDS011;11493;43.344;26.226;2023-04-01T06:58:51;8.23;;;6.85;;
22652;SDS011;11493;43.344;26.226;2023-04-01T07:01:24;16.02;;;7.72;;
22652;SDS011;11493;43.344;26.226;2023-04-01T07:04:00;12.88;;;9.18;;
22652;SDS011;11493;43.344;26.226;2023-04-01T07:06:37;13.65;;;9.65;;
22652;SDS011;11493;43.344;26.226;2023-04-01T07:09:12;15.77;;;9.70;;
22652;SDS011;11493;43.344;26.226;2023-04-01T07:12:02;15.13;;;12.30;;
22652;SDS011;11493;43.344;26.226;2023-04-01T07:14:58;22.60;;;12.32;;
22652;SDS011;11493;43.344;26.226;2023-04-01T07:17:32;23.55;;;13.10;;
22652;SDS011;11493;43.344;26.226;2023-04-01T07:20:10;19.73;;;11.48;;
22652;SDS011;11493;43.344;26.226;2023-04-01T07:22:44;17.02;;;11.30;;
22652;SDS011;11493;43.344;26.226;2023-04-01T07:25:53;19.42;;;12.70;;
22652;SDS011;11493;43.344;26.226;2023-04-01T07:29:02;22.50;;;14.80;;
22652;SDS011;11493;43.344;26.226;2023-04-01T07:34:55;33.35;;;21.35;;
22652;SDS011;11493;43.344;26.226;2023-04-01T07:37:56;51.65;;;25.00;;
22652;SDS011;11493;43.344;26.226;2023-04-01T07:55:00;38.58;;;19.00;;
22652;SDS011;11493;43.344;26.226;2023-04-01T08:11:43;27.25;;;14.73;;
22652;SDS011;11493;43.344;26.226;2023-04-01T08:17:59;39.63;;;20.65;;
22652;SDS011;11493;43.344;26.226;2023-04-01T08:20:38;45.90;;;27.30;;
22652;SDS011;11493;43.344;26.226;2023-04-01T08:23:33;38.63;;;24.00;;
22652;SDS011;11493;43.344;26.226;2023-04-01T08:26:10;43.50;;;19.35;;
22652;SDS011;11493;43.344;26.226;2023-04-01T08:28:44;35.42;;;21.77;;
22652;SDS011;11493;43.344;26.226;2023-04-01T08:31:24;43.13;;;22.08;;
22652;SDS011;11493;43.344;26.226;2023-04-01T08:33:53;59.40;;;22.98;;
22652;SDS011;11493;43.344;26.226;2023-04-01T08:36:27;50.40;;;23.23;;
22652;SDS011;11493;43.344;26.226;2023-04-01T08:39:16;52.85;;;26.73;;
22652;SDS011;11493;43.344;26.226;2023-04-01T08:42:09;72.28;;;34.92;;
22652;SDS011;11493;43.344;26.226;2023-04-01T09:05:53;48.45;;;21.75;;
22652;SDS011;11493;43.344;26.226;2023-04-01T09:08:31;58.15;;;22.70;;
22652;SDS011;11493;43.344;26.226;2023-04-01T09:28:42;33.10;;;14.57;;
22652;SDS011;11493;43.344;26.226;2023-04-01T09:48:54;14.55;;;9.43;;
22652;SDS011;11493;43.344;26.226;2023-04-01T09:51:49;13.35;;;9.60;;
22652;SDS011;11493;43.344;26.226;2023-04-01T09:57:33;13.00;;;6.95;;
22652;SDS011;11493;43.344;26.226;2023-04-01T10:59:15;9.05;;;3.22;;
22652;SDS011;11493;43.344;26.226;2023-04-01T11:08:46;9.82;;;3.60;;
22652;SDS011;11493;43.344;26.226;2023-04-01T11:11:56;4.82;;;2.38;;
22652;SDS011;11493;43.344;26.226;2023-04-01T11:40:32;11.10;;;3.40;;
22652;SDS011;11493;43.344;26.226;2023-04-01T11:49:28;2.85;;;1.80;;
22652;SDS011;11493;43.344;26.226;2023-04-01T12:03:46;6.55;;;1.90;;
22652;SDS011;11493;43.344;26.226;2023-04-01T12:17:43;6.45;;;2.25;;
22652;SDS011;11493;43.344;26.226;2023-04-01T12:21:16;7.73;;;2.50;;
22652;SDS011;11493;43.344;26.226;2023-04-01T12:23:45;6.68;;;1.83;;
22652;SDS011;11493;43.344;26.226;2023-04-01T12:26:39;5.90;;;1.63;;
22652;SDS011;11493;43.344;26.226;2023-04-01T12:40:33;4.72;;;2.08;;
22652;SDS011;11493;43.344;26.226;2023-04-01T12:43:33;3.13;;;1.90;;
22652;SDS011;11493;43.344;26.226;2023-04-01T12:57:58;3.60;;;1.90;;
22652;SDS011;11493;43.344;26.226;2023-04-01T13:00:38;4.95;;;1.90;;
22652;SDS011;11493;43.344;26.226;2023-04-01T13:03:32;3.65;;;2.45;;
22652;SDS011;11493;43.344;26.226;2023-04-01T13:12:03;11.07;;;2.75;;
22652;SDS011;11493;43.344;26.226;2023-04-01T13:17:52;6.18;;;2.45;;
22652;SDS011;11493;43.344;26.226;2023-04-01T13:25:47;5.35;;;2.83;;
22652;SDS011;11493;43.344;26.226;2023-04-01T13:28:40;10.20;;;5.80;;
22652;SDS011;11493;43.344;26.226;2023-04-01T13:34:45;15.48;;;3.08;;
22652;SDS011;11493;43.344;26.226;2023-04-01T13:37:24;11.38;;;6.13;;
22652;SDS011;11493;43.344;26.226;2023-04-01T13:42:33;8.90;;;3.50;;
22652;SDS011;11493;43.344;26.226;2023-04-01T13:45:18;14.85;;;2.92;;
22652;SDS011;11493;43.344;26.226;2023-04-01T13:58:57;7.95;;;2.90;;
22652;SDS011;11493;43.344;26.226;2023-04-01T14:01:35;10.75;;;3.55;;
22652;SDS011;11493;43.344;26.226;2023-04-01T14:20:48;12.00;;;4.78;;
22652;SDS011;11493;43.344;26.226;2023-04-01T14:23:35;16.58;;;5.10;;
22652;SDS011;11493;43.344;26.226;2023-04-01T14:26:26;7.50;;;3.95;;
22652;SDS011;11493;43.344;26.226;2023-04-01T14:34:50;5.63;;;2.85;;
22652;SDS011;11493;43.344;26.226;2023-04-01T14:40:28;5.85;;;3.50;;
22652;SDS011;11493;43.344;26.226;2023-04-01T14:43:22;13.95;;;5.47;;
22652;SDS011;11493;43.344;26.226;2023-04-01T14:49:00;7.10;;;3.25;;
22652;SDS011;11493;43.344;26.226;2023-04-01T14:51:32;5.95;;;3.00;;
22652;SDS011;11493;43.344;26.226;2023-04-01T14:54:05;4.97;;;2.70;;
22652;SDS011;11493;43.344;26.226;2023-04-01T14:56:50;4.38;;;2.53;;
22652;SDS011;11493;43.344;26.226;2023-04-01T14:59:30;5.88;;;2.45;;
22652;SDS011;11493;43.344;26.226;2023-04-01T15:05:02;8.65;;;2.90;;
22652;SDS011;11493;43.344;26.226;2023-04-01T15:08:11;3.83;;;2.38;;
22652;SDS011;11493;43.344;26.226;2023-04-01T15:10:58;7.90;;;3.90;;
22652;SDS011;11493;43.344;26.226;2023-04-01T15:27:48;12.80;;;6.85;;
22652;SDS011;11493;43.344;26.226;2023-04-01T15:30:27;19.48;;;7.55;;
22652;SDS011;11493;43.344;26.226;2023-04-01T15:33:02;13.45;;;7.75;;
22652;SDS011;11493;43.344;26.226;2023-04-01T15:41:27;9.43;;;5.97;;
22652;SDS011;11493;43.344;26.226;2023-04-01T15:45:02;14.60;;;5.35;;
22652;SDS011;11493;43.344;26.226;2023-04-01T15:47:41;15.50;;;6.63;;
22652;SDS011;11493;43.344;26.226;2023-04-01T15:56:06;9.07;;;5.22;;
22652;SDS011;11493;43.344;26.226;2023-04-01T16:09:56;89.32;;;38.58;;
22652;SDS011;11493;43.344;26.226;2023-04-01T16:21:33;17.38;;;8.98;;
22652;SDS011;11493;43.344;26.226;2023-04-01T16:24:09;17.27;;;9.15;;
22652;SDS011;11493;43.344;26.226;2023-04-01T16:30:23;20.50;;;13.38;;
22652;SDS011;11493;43.344;26.226;2023-04-01T16:35:46;21.40;;;14.00;;
22652;SDS011;11493;43.344;26.226;2023-04-01T16:44:20;24.67;;;16.52;;
22652;SDS011;11493;43.344;26.226;2023-04-01T16:46:56;28.33;;;17.08;;
22652;SDS011;11493;43.344;26.226;2023-04-01T16:50:20;31.05;;;18.65;;
22652;SDS011;11493;43.344;26.226;2023-04-01T16:55:20;32.05;;;19.23;;
22652;SDS011;11493;43.344;26.226;2023-04-01T16:57:52;43.05;;;26.02;;
22652;SDS011;11493;43.344;26.226;2023-04-01T17:03:27;26.98;;;18.17;;
22652;SDS011;11493;43.344;26.226;2023-04-01T17:08:50;24.20;;;17.35;;
22652;SDS011;11493;43.344;26.226;2023-04-01T17:11:49;21.40;;;14.02;;
22652;SDS011;11493;43.344;26.226;2023-04-01T17:17:48;19.65;;;12.63;;
22652;SDS011;11493;43.344;26.226;2023-04-01T17:40:17;21.45;;;12.05;;
22652;SDS011;11493;43.344;26.226;2023-04-01T17:43:03;19.53;;;10.87;;
22652;SDS011;11493;43.344;26.226;2023-04-01T17:45:42;37.50;;;17.98;;
22652;SDS011;11493;43.344;26.226;2023-04-01T17:53:52;43.50;;;31.73;;
22652;SDS011;11493;43.344;26.226;2023-04-01T17:59:10;62.63;;;45.38;;
22652;SDS011;11493;43.344;26.226;2023-04-01T18:01:56;136.13;;;93.75;;
22652;SDS011;11493;43.344;26.226;2023-04-01T18:08:03;81.45;;;56.65;;
22652;SDS011;11493;43.344;26.226;2023-04-01T18:10:57;34.08;;;22.73;;
22652;SDS011;11493;43.344;26.226;2023-04-01T18:24:35;23.80;;;13.60;;
22652;SDS011;11493;43.344;26.226;2023-04-01T18:27:29;21.35;;;13.32;;
22652;SDS011;11493;43.344;26.226;2023-04-01T18:32:52;18.40;;;12.82;;
22652;SDS011;11493;43.344;26.226;2023-04-01T18:38:13;8.68;;;7.63;;
22652;SDS011;11493;43.344;26.226;2023-04-01T18:41:14;13.82;;;10.18;;
22652;SDS011;11493;43.344;26.226;2023-04-01T18:46:38;15.77;;;9.60;;
22652;SDS011;11493;43.344;26.226;2023-04-01T18:49:25;14.55;;;9.40;;
22652;SDS011;11493;43.344;26.226;2023-04-01T18:51:58;14.75;;;9.70;;
22652;SDS011;11493;43.344;26.226;2023-04-01T18:57:41;15.68;;;10.55;;
22652;SDS011;11493;43.344;26.226;2023-04-01T19:00:19;15.13;;;9.82;;
22652;SDS011;11493;43.344;26.226;2023-04-01T19:05:37;15.05;;;9.13;;
22652;SDS011;11493;43.344;26.226;2023-04-01T19:21:58;15.45;;;9.43;;
22652;SDS011;11493;43.344;26.226;2023-04-01T19:25:29;14.55;;;10.57;;
22652;SDS011;11493;43.344;26.226;2023-04-01T19:27:51;10.43;;;5.97;;
22652;SDS011;11493;43.344;26.226;2023-04-01T19:30:54;9.00;;;6.40;;
22652;SDS011;11493;43.344;26.226;2023-04-01T19:36:07;13.50;;;7.78;;
22652;SDS011;11493;43.344;26.226;2023-04-01T19:38:38;20.17;;;11.50;;
22652;SDS011;11493;43.344;26.226;2023-04-01T19:46:59;22.25;;;10.88;;
22652;SDS011;11493;43.344;26.226;2023-04-01T19:52:35;29.33;;;14.60;;
22652;SDS011;11493;43.344;26.226;2023-04-01T20:05:49;13.23;;;9.00;;
22652;SDS011;11493;43.344;26.226;2023-04-01T20:10:58;20.23;;;15.07;;
22652;SDS011;11493;43.344;26.226;2023-04-01T20:25:27;43.65;;;25.85;;
22652;SDS011;11493;43.344;26.226;2023-04-01T20:28:11;18.33;;;14.18;;
22652;SDS011;11493;43.344;26.226;2023-04-01T20:59:25;2.47;;;1.70;;
22652;SDS011;11493;43.344;26.226;2023-04-01T21:13:17;2.35;;;1.55;;
22652;SDS011;11493;43.344;26.226;2023-04-01T21:21:55;1.77;;;0.80;;
22652;SDS011;11493;43.344;26.226;2023-04-01T22:17:00;1.92;;;1.10;;
22652;SDS011;11493;43.344;26.226;2023-04-01T22:22:26;1.10;;;1.00;;
22652;SDS011;11493;43.344;26.226;2023-04-01T22:25:19;1.05;;;1.00;;
22652;SDS011;11493;43.344;26.226;2023-04-01T22:28:05;1.13;;;1.00;;
22652;SDS011;11493;43.344;26.226;2023-04-01T22:30:39;1.30;;;1.10;;
22652;SDS011;11493;43.344;26.226;2023-04-01T22:33:22;2.00;;;1.30;;
22652;SDS011;11493;43.344;26.226;2023-04-01T22:38:31;1.63;;;1.20;;
22652;SDS011;11493;43.344;26.226;2023-04-01T22:50:40;1.42;;;1.02;;
22652;SDS011;11493;43.344;26.226;2023-04-01T22:53:53;1.20;;;1.10;;
22652;SDS011;11493;43.344;26.226;2023-04-01T22:56:31;2.28;;;1.13;;
22652;SDS011;11493;43.344;26.226;2023-04-01T23:01:51;1.15;;;1.05;;
22652;SDS011;11493;43.344;26.226;2023-04-01T23:04:24;1.20;;;1.10;;
22652;SDS011;11493;43.344;26.226;2023-04-01T23:07:00;1.67;;;1.27;;
22652;SDS011;11493;43.344;26.226;2023-04-01T23:09:35;1.63;;;1.08;;
22652;SDS011;11493;43.344;26.226;2023-04-01T23:14:41;2.63;;;1.10;;
22652;SDS011;11493;43.344;26.226;2023-04-01T23:22:44;1.30;;;1.20;;
22652;SDS011;11493;43.344;26.226;2023-04-01T23:36:41;0.90;;;0.90;;
22652;SDS011;11493;43.344;26.226;2023-04-01T23:39:23;1.00;;;0.90;;
22652;SDS011;11493;43.344;26.226;2023-04-01T23:42:25;0.80;;;0.80;;
22652;SDS011;11493;43.344;26.226;2023-04-01T23:45:01;0.73;;;0.73;;
22652;SDS011;11493;43.344;26.226;2023-04-01T23:47:32;1.10;;;1.00;;
22652;SDS011;11493;43.344;26.226;2023-04-01T23:50:12;1.23;;;1.13;;
22652;SDS011;11493;43.344;26.226;2023-04-01T23:52:59;1.05;;;0.95;;
22652;SDS011;11493;43.344;26.226;2023-04-01T23:55:31;1.08;;;0.90;;
22652;SDS011;11493;43.344;26.226;2023-04-01T23:58:47;1.55;;;0.90;;
